Airfield :
LOGIN :

Register | Disclaimer

   EN    FR    IT 

 










Legend :    VFR   Marginal VFR   IFR   Intensive IFR   Very Intensive IFR
Visi :
Ceiling :
>= 8 km
>= 3000ft
5 to 8 km
1000 to 3000 ft
1500m to 5 km
500 to 1000 ft
800 to 1500m
200 to 500 ft
< 800m
< 200 ft
Symbols :   Thunderstorms  Fog  Heavy snow  Heavy precipitations  Wind > 20 kt
SIGMETs :     Misc.  Thunderstorms  Icing  Turbulence  Mountain Waves  Volcanic Ashes






- Airport Elevation : 741 ft
- IATA code : PED


LKPD - Pardubice AB

CURRENT METAR :
  • 161030Z 29009KT 9999 OVC012 04/01 Q1021 NOSIG RMK GRN GRN

EXPIRED METARs :
  • 161000Z 27011KT 9999 OVC012 03/01 Q1021 NOSIG
  • 160930Z 28009KT 9999 OVC011 03/01 Q1021 NOSIG RMK GRN GRN
  • 160900Z 28009KT 9999 BKN010 OVC016 03/01 Q1021 NOSIG RMK GRN GRN
  • 160830Z 28009KT 9999 -DZ OVC009 03/01 Q1021 NOSIG RMK GRN GRN
  • 160808Z 28008KT 9999 -DZ OVC009 02/01 Q1021 RMK GRN

TAF TAF LKPD
Valid from the 16 at 06:00 until the 17 at 06:00 UTC


160500Z 1606/1706 28009KT 9999 BKN012 OVC020
TEMPO 1606/1612 4000 SNRA BKN007
PROB40
TEMPO 1606/1608 2000 SN OVC007
BECMG 1612/1615 BKN025
TEMPO 1612/1616 7000 RA BKN014
PROB30
TEMPO 1612/1618 28015G25KT BKN008
TEMPO 1616/1706 4000 SN BKN008



MET'MAP, your aeronautical weather chart ! - Copyright ORBIFLY December 2007 - Disclaimer

ORBIFLY MET'MAP TEAM :

Programming & Development : Alexandra Zaïnal
Concept & original design : Baudouin d'Aumeries
Assistance for programming : Marc-Olivier Méhu
Technical & hardware support : Manuel Goepfert

Contact : metmap@orbifly.com




SOURCES & CREDITS :

   NOAA